sensor_id;sensor_type;location;lat;lon;timestamp;P1;durP1;ratioP1;P2;durP2;ratioP2
64826;SDS011;51265;53.972;12.286;2023-02-15T00:01:35;53.10;;;19.27;;
64826;SDS011;51265;53.972;12.286;2023-02-15T00:04:02;51.42;;;18.95;;
64826;SDS011;51265;53.972;12.286;2023-02-15T00:06:29;50.03;;;19.60;;
64826;SDS011;51265;53.972;12.286;2023-02-15T00:08:56;52.30;;;19.67;;
64826;SDS011;51265;53.972;12.286;2023-02-15T00:11:22;50.28;;;18.45;;
64826;SDS011;51265;53.972;12.286;2023-02-15T00:14:12;51.03;;;20.48;;
64826;SDS011;51265;53.972;12.286;2023-02-15T00:16:41;53.63;;;20.15;;
64826;SDS011;51265;53.972;12.286;2023-02-15T00:19:08;50.13;;;20.08;;
64826;SDS011;51265;53.972;12.286;2023-02-15T00:21:36;44.85;;;19.23;;
64826;SDS011;51265;53.972;12.286;2023-02-15T00:24:04;50.80;;;19.38;;
64826;SDS011;51265;53.972;12.286;2023-02-15T00:26:32;53.45;;;20.65;;
64826;SDS011;51265;53.972;12.286;2023-02-15T00:28:59;52.83;;;20.17;;
64826;SDS011;51265;53.972;12.286;2023-02-15T00:31:26;51.22;;;19.33;;
64826;SDS011;51265;53.972;12.286;2023-02-15T00:33:55;45.08;;;19.27;;
64826;SDS011;51265;53.972;12.286;2023-02-15T00:36:21;50.28;;;19.92;;
64826;SDS011;51265;53.972;12.286;2023-02-15T00:38:48;51.55;;;19.52;;
64826;SDS011;51265;53.972;12.286;2023-02-15T00:41:14;45.83;;;18.77;;
64826;SDS011;51265;53.972;12.286;2023-02-15T00:43:40;48.47;;;19.45;;
64826;SDS011;51265;53.972;12.286;2023-02-15T00:46:06;49.58;;;18.70;;
64826;SDS011;51265;53.972;12.286;2023-02-15T00:48:33;44.95;;;18.58;;
64826;SDS011;51265;53.972;12.286;2023-02-15T00:50:59;49.88;;;20.00;;
64826;SDS011;51265;53.972;12.286;2023-02-15T00:53:27;51.00;;;19.05;;
64826;SDS011;51265;53.972;12.286;2023-02-15T00:55:54;55.53;;;20.75;;
64826;SDS011;51265;53.972;12.286;2023-02-15T00:58:20;54.78;;;18.90;;
64826;SDS011;51265;53.972;12.286;2023-02-15T01:00:46;51.10;;;20.35;;
64826;SDS011;51265;53.972;12.286;2023-02-15T01:03:14;53.25;;;20.20;;
64826;SDS011;51265;53.972;12.286;2023-02-15T01:05:42;50.22;;;19.90;;
64826;SDS011;51265;53.972;12.286;2023-02-15T01:08:08;55.45;;;20.95;;
64826;SDS011;51265;53.972;12.286;2023-02-15T01:10:35;50.97;;;19.17;;
64826;SDS011;51265;53.972;12.286;2023-02-15T01:13:02;58.38;;;21.42;;
64826;SDS011;51265;53.972;12.286;2023-02-15T01:15:29;56.25;;;20.65;;
64826;SDS011;51265;53.972;12.286;2023-02-15T01:17:55;51.65;;;20.20;;
64826;SDS011;51265;53.972;12.286;2023-02-15T01:20:22;52.40;;;20.95;;
64826;SDS011;51265;53.972;12.286;2023-02-15T01:22:51;47.60;;;20.85;;
64826;SDS011;51265;53.972;12.286;2023-02-15T01:25:22;48.72;;;19.75;;
64826;SDS011;51265;53.972;12.286;2023-02-15T01:27:49;48.28;;;20.05;;
64826;SDS011;51265;53.972;12.286;2023-02-15T01:30:16;48.03;;;18.73;;
64826;SDS011;51265;53.972;12.286;2023-02-15T01:33:03;52.97;;;19.42;;
64826;SDS011;51265;53.972;12.286;2023-02-15T01:35:30;52.95;;;20.55;;
64826;SDS011;51265;53.972;12.286;2023-02-15T01:37:57;56.88;;;20.83;;
64826;SDS011;51265;53.972;12.286;2023-02-15T01:40:24;50.33;;;19.60;;
64826;SDS011;51265;53.972;12.286;2023-02-15T01:42:53;52.97;;;19.58;;
64826;SDS011;51265;53.972;12.286;2023-02-15T01:47:51;64.70;;;21.33;;
64826;SDS011;51265;53.972;12.286;2023-02-15T01:53:13;48.33;;;19.30;;
64826;SDS011;51265;53.972;12.286;2023-02-15T01:55:47;59.80;;;19.83;;
64826;SDS011;51265;53.972;12.286;2023-02-15T01:58:19;50.67;;;20.15;;
64826;SDS011;51265;53.972;12.286;2023-02-15T02:00:47;52.80;;;19.42;;
64826;SDS011;51265;53.972;12.286;2023-02-15T02:03:13;57.60;;;19.63;;
64826;SDS011;51265;53.972;12.286;2023-02-15T02:05:40;53.10;;;19.88;;
64826;SDS011;51265;53.972;12.286;2023-02-15T02:08:07;55.53;;;21.38;;
64826;SDS011;51265;53.972;12.286;2023-02-15T02:10:35;61.20;;;21.13;;
64826;SDS011;51265;53.972;12.286;2023-02-15T02:13:03;50.75;;;19.63;;
64826;SDS011;51265;53.972;12.286;2023-02-15T02:18:35;53.03;;;19.88;;
64826;SDS011;51265;53.972;12.286;2023-02-15T02:21:42;50.13;;;19.42;;
64826;SDS011;51265;53.972;12.286;2023-02-15T02:30:02;50.63;;;18.88;;
64826;SDS011;51265;53.972;12.286;2023-02-15T02:32:46;54.70;;;20.20;;
64826;SDS011;51265;53.972;12.286;2023-02-15T02:37:51;51.20;;;20.00;;
64826;SDS011;51265;53.972;12.286;2023-02-15T02:40:41;58.63;;;20.45;;
64826;SDS011;51265;53.972;12.286;2023-02-15T02:43:15;53.40;;;20.63;;
64826;SDS011;51265;53.972;12.286;2023-02-15T02:45:44;52.92;;;20.00;;
64826;SDS011;51265;53.972;12.286;2023-02-15T02:48:18;52.47;;;19.58;;
64826;SDS011;51265;53.972;12.286;2023-02-15T02:50:48;51.90;;;20.58;;
64826;SDS011;51265;53.972;12.286;2023-02-15T02:53:16;52.20;;;20.98;;
64826;SDS011;51265;53.972;12.286;2023-02-15T02:55:47;54.53;;;20.60;;
64826;SDS011;51265;53.972;12.286;2023-02-15T02:58:28;56.58;;;21.73;;
64826;SDS011;51265;53.972;12.286;2023-02-15T03:01:01;50.67;;;20.98;;
64826;SDS011;51265;53.972;12.286;2023-02-15T03:03:43;48.20;;;19.55;;
64826;SDS011;51265;53.972;12.286;2023-02-15T03:06:17;48.33;;;19.90;;
64826;SDS011;51265;53.972;12.286;2023-02-15T03:08:50;53.15;;;20.67;;
64826;SDS011;51265;53.972;12.286;2023-02-15T03:11:24;55.88;;;21.15;;
64826;SDS011;51265;53.972;12.286;2023-02-15T03:13:51;55.33;;;21.55;;
64826;SDS011;51265;53.972;12.286;2023-02-15T03:16:19;54.50;;;19.17;;
64826;SDS011;51265;53.972;12.286;2023-02-15T03:18:54;58.17;;;21.45;;
64826;SDS011;51265;53.972;12.286;2023-02-15T03:21:26;48.95;;;20.23;;
64826;SDS011;51265;53.972;12.286;2023-02-15T03:23:59;54.78;;;21.05;;
64826;SDS011;51265;53.972;12.286;2023-02-15T03:26:30;58.85;;;21.38;;
64826;SDS011;51265;53.972;12.286;2023-02-15T03:29:00;48.28;;;19.27;;
64826;SDS011;51265;53.972;12.286;2023-02-15T03:31:30;56.38;;;20.98;;
64826;SDS011;51265;53.972;12.286;2023-02-15T03:34:00;51.00;;;19.65;;
64826;SDS011;51265;53.972;12.286;2023-02-15T03:39:17;52.10;;;22.17;;
64826;SDS011;51265;53.972;12.286;2023-02-15T03:42:32;52.60;;;21.13;;
64826;SDS011;51265;53.972;12.286;2023-02-15T03:44:36;63.78;;;22.77;;
64826;SDS011;51265;53.972;12.286;2023-02-15T03:47:15;52.20;;;21.00;;
64826;SDS011;51265;53.972;12.286;2023-02-15T03:49:51;55.97;;;22.05;;
64826;SDS011;51265;53.972;12.286;2023-02-15T03:52:58;59.20;;;21.40;;
64826;SDS011;51265;53.972;12.286;2023-02-15T03:55:28;54.78;;;20.23;;
64826;SDS011;51265;53.972;12.286;2023-02-15T03:57:55;52.88;;;21.00;;
64826;SDS011;51265;53.972;12.286;2023-02-15T04:00:40;51.42;;;20.52;;
64826;SDS011;51265;53.972;12.286;2023-02-15T04:03:36;59.92;;;20.48;;
64826;SDS011;51265;53.972;12.286;2023-02-15T04:06:07;51.85;;;20.60;;
64826;SDS011;51265;53.972;12.286;2023-02-15T04:08:33;55.00;;;20.90;;
64826;SDS011;51265;53.972;12.286;2023-02-15T04:11:18;58.58;;;20.25;;
64826;SDS011;51265;53.972;12.286;2023-02-15T04:13:44;54.00;;;21.02;;
64826;SDS011;51265;53.972;12.286;2023-02-15T04:16:10;59.10;;;21.83;;
64826;SDS011;51265;53.972;12.286;2023-02-15T04:18:39;50.25;;;20.25;;
64826;SDS011;51265;53.972;12.286;2023-02-15T04:21:27;51.40;;;20.42;;
64826;SDS011;51265;53.972;12.286;2023-02-15T04:24:14;53.90;;;21.52;;
64826;SDS011;51265;53.972;12.286;2023-02-15T04:27:00;54.30;;;21.27;;
64826;SDS011;51265;53.972;12.286;2023-02-15T04:29:27;54.30;;;21.35;;
64826;SDS011;51265;53.972;12.286;2023-02-15T04:31:54;61.83;;;22.05;;
64826;SDS011;51265;53.972;12.286;2023-02-15T04:34:22;56.70;;;22.33;;
64826;SDS011;51265;53.972;12.286;2023-02-15T04:36:48;68.80;;;22.80;;
64826;SDS011;51265;53.972;12.286;2023-02-15T04:39:16;59.10;;;22.13;;
64826;SDS011;51265;53.972;12.286;2023-02-15T04:41:43;58.88;;;21.25;;
64826;SDS011;51265;53.972;12.286;2023-02-15T04:44:10;55.97;;;21.88;;
64826;SDS011;51265;53.972;12.286;2023-02-15T04:46:36;55.17;;;21.60;;
64826;SDS011;51265;53.972;12.286;2023-02-15T04:49:03;59.85;;;22.10;;
64826;SDS011;51265;53.972;12.286;2023-02-15T04:51:29;53.55;;;20.50;;
64826;SDS011;51265;53.972;12.286;2023-02-15T04:53:56;55.42;;;21.50;;
64826;SDS011;51265;53.972;12.286;2023-02-15T04:56:22;53.92;;;21.02;;
64826;SDS011;51265;53.972;12.286;2023-02-15T04:58:49;58.47;;;21.15;;
64826;SDS011;51265;53.972;12.286;2023-02-15T05:01:15;52.30;;;21.00;;
64826;SDS011;51265;53.972;12.286;2023-02-15T05:03:41;60.15;;;21.52;;
64826;SDS011;51265;53.972;12.286;2023-02-15T05:06:07;58.25;;;21.52;;
64826;SDS011;51265;53.972;12.286;2023-02-15T05:08:33;50.28;;;19.13;;
64826;SDS011;51265;53.972;12.286;2023-02-15T05:11:00;61.47;;;21.85;;
64826;SDS011;51265;53.972;12.286;2023-02-15T05:13:26;55.85;;;21.02;;
64826;SDS011;51265;53.972;12.286;2023-02-15T05:15:52;51.33;;;20.23;;
64826;SDS011;51265;53.972;12.286;2023-02-15T05:18:20;49.40;;;20.42;;
64826;SDS011;51265;53.972;12.286;2023-02-15T05:20:47;50.92;;;20.00;;
64826;SDS011;51265;53.972;12.286;2023-02-15T05:23:14;54.83;;;22.00;;
64826;SDS011;51265;53.972;12.286;2023-02-15T05:25:40;57.95;;;21.17;;
64826;SDS011;51265;53.972;12.286;2023-02-15T05:28:26;55.05;;;20.58;;
64826;SDS011;51265;53.972;12.286;2023-02-15T05:31:06;55.95;;;21.52;;
64826;SDS011;51265;53.972;12.286;2023-02-15T05:33:35;58.80;;;21.58;;
64826;SDS011;51265;53.972;12.286;2023-02-15T05:36:02;56.00;;;22.02;;
64826;SDS011;51265;53.972;12.286;2023-02-15T05:38:29;57.67;;;21.60;;
64826;SDS011;51265;53.972;12.286;2023-02-15T05:40:56;53.83;;;21.05;;
64826;SDS011;51265;53.972;12.286;2023-02-15T05:43:23;55.08;;;20.90;;
64826;SDS011;51265;53.972;12.286;2023-02-15T05:45:50;57.75;;;21.02;;
64826;SDS011;51265;53.972;12.286;2023-02-15T05:48:19;57.65;;;20.00;;
64826;SDS011;51265;53.972;12.286;2023-02-15T05:50:56;55.38;;;21.58;;
64826;SDS011;51265;53.972;12.286;2023-02-15T05:53:34;58.42;;;21.13;;
64826;SDS011;51265;53.972;12.286;2023-02-15T05:56:03;60.72;;;21.23;;
64826;SDS011;51265;53.972;12.286;2023-02-15T05:58:31;55.42;;;20.40;;
64826;SDS011;51265;53.972;12.286;2023-02-15T06:00:59;56.63;;;21.58;;
64826;SDS011;51265;53.972;12.286;2023-02-15T06:03:25;57.30;;;22.08;;
64826;SDS011;51265;53.972;12.286;2023-02-15T06:05:55;60.60;;;21.45;;
64826;SDS011;51265;53.972;12.286;2023-02-15T06:08:21;59.08;;;21.73;;
64826;SDS011;51265;53.972;12.286;2023-02-15T06:10:47;55.97;;;21.42;;
64826;SDS011;51265;53.972;12.286;2023-02-15T06:13:13;56.80;;;20.85;;
64826;SDS011;51265;53.972;12.286;2023-02-15T06:15:39;49.33;;;20.25;;
64826;SDS011;51265;53.972;12.286;2023-02-15T06:18:05;53.97;;;22.20;;
64826;SDS011;51265;53.972;12.286;2023-02-15T06:20:32;56.53;;;21.05;;
64826;SDS011;51265;53.972;12.286;2023-02-15T06:22:58;50.25;;;19.77;;
64826;SDS011;51265;53.972;12.286;2023-02-15T06:25:24;51.17;;;20.48;;
64826;SDS011;51265;53.972;12.286;2023-02-15T06:27:50;52.00;;;20.30;;
64826;SDS011;51265;53.972;12.286;2023-02-15T06:30:17;53.55;;;20.92;;
64826;SDS011;51265;53.972;12.286;2023-02-15T06:32:43;48.45;;;19.65;;
64826;SDS011;51265;53.972;12.286;2023-02-15T06:35:09;55.85;;;21.17;;
64826;SDS011;51265;53.972;12.286;2023-02-15T06:37:38;121.85;;;52.17;;
64826;SDS011;51265;53.972;12.286;2023-02-15T06:40:04;124.05;;;53.08;;
64826;SDS011;51265;53.972;12.286;2023-02-15T06:42:31;58.95;;;22.33;;
64826;SDS011;51265;53.972;12.286;2023-02-15T06:44:58;65.07;;;21.85;;
64826;SDS011;51265;53.972;12.286;2023-02-15T06:47:26;56.33;;;22.25;;
64826;SDS011;51265;53.972;12.286;2023-02-15T06:49:52;60.45;;;21.52;;
64826;SDS011;51265;53.972;12.286;2023-02-15T06:52:18;67.50;;;24.00;;
64826;SDS011;51265;53.972;12.286;2023-02-15T06:54:44;66.97;;;24.60;;
64826;SDS011;51265;53.972;12.286;2023-02-15T06:57:10;66.53;;;25.23;;
64826;SDS011;51265;53.972;12.286;2023-02-15T06:59:37;70.22;;;24.40;;
64826;SDS011;51265;53.972;12.286;2023-02-15T07:02:03;75.00;;;25.75;;
64826;SDS011;51265;53.972;12.286;2023-02-15T07:04:29;82.20;;;28.52;;
64826;SDS011;51265;53.972;12.286;2023-02-15T07:06:55;81.57;;;27.60;;
64826;SDS011;51265;53.972;12.286;2023-02-15T07:09:22;74.43;;;25.67;;
64826;SDS011;51265;53.972;12.286;2023-02-15T07:11:48;79.05;;;26.17;;
64826;SDS011;51265;53.972;12.286;2023-02-15T07:14:33;77.25;;;24.85;;
64826;SDS011;51265;53.972;12.286;2023-02-15T07:16:59;79.00;;;26.60;;
64826;SDS011;51265;53.972;12.286;2023-02-15T07:19:25;74.10;;;25.55;;
64826;SDS011;51265;53.972;12.286;2023-02-15T07:21:51;79.28;;;28.60;;
64826;SDS011;51265;53.972;12.286;2023-02-15T07:24:18;82.43;;;28.52;;
64826;SDS011;51265;53.972;12.286;2023-02-15T07:26:44;81.85;;;27.63;;
64826;SDS011;51265;53.972;12.286;2023-02-15T07:29:10;79.90;;;27.90;;
64826;SDS011;51265;53.972;12.286;2023-02-15T07:31:36;71.70;;;26.45;;
64826;SDS011;51265;53.972;12.286;2023-02-15T07:34:03;75.13;;;26.23;;
64826;SDS011;51265;53.972;12.286;2023-02-15T07:36:30;86.82;;;26.45;;
64826;SDS011;51265;53.972;12.286;2023-02-15T07:38:57;87.63;;;27.30;;
64826;SDS011;51265;53.972;12.286;2023-02-15T07:41:23;97.45;;;27.33;;
64826;SDS011;51265;53.972;12.286;2023-02-15T07:43:49;93.53;;;27.90;;
64826;SDS011;51265;53.972;12.286;2023-02-15T07:46:16;84.13;;;26.23;;
64826;SDS011;51265;53.972;12.286;2023-02-15T07:48:43;127.85;;;28.83;;
64826;SDS011;51265;53.972;12.286;2023-02-15T07:51:10;100.97;;;26.80;;
64826;SDS011;51265;53.972;12.286;2023-02-15T07:53:37;105.97;;;25.95;;
64826;SDS011;51265;53.972;12.286;2023-02-15T07:56:05;111.53;;;25.60;;
64826;SDS011;51265;53.972;12.286;2023-02-15T07:58:36;138.65;;;26.92;;
64826;SDS011;51265;53.972;12.286;2023-02-15T08:01:19;94.65;;;25.73;;
64826;SDS011;51265;53.972;12.286;2023-02-15T08:03:51;112.53;;;26.00;;
64826;SDS011;51265;53.972;12.286;2023-02-15T08:06:18;109.93;;;27.42;;
64826;SDS011;51265;53.972;12.286;2023-02-15T08:08:44;71.28;;;24.23;;
64826;SDS011;51265;53.972;12.286;2023-02-15T08:14:11;199.63;;;28.23;;
64826;SDS011;51265;53.972;12.286;2023-02-15T08:19:10;127.15;;;27.73;;
64826;SDS011;51265;53.972;12.286;2023-02-15T08:21:38;83.97;;;26.75;;
64826;SDS011;51265;53.972;12.286;2023-02-15T08:24:07;112.15;;;27.30;;
64826;SDS011;51265;53.972;12.286;2023-02-15T08:26:35;196.15;;;29.45;;
64826;SDS011;51265;53.972;12.286;2023-02-15T08:29:02;110.38;;;25.38;;
64826;SDS011;51265;53.972;12.286;2023-02-15T08:31:28;150.45;;;28.73;;
64826;SDS011;51265;53.972;12.286;2023-02-15T08:33:55;79.07;;;25.63;;
64826;SDS011;51265;53.972;12.286;2023-02-15T08:36:23;176.50;;;31.35;;
64826;SDS011;51265;53.972;12.286;2023-02-15T08:38:51;142.02;;;26.67;;
64826;SDS011;51265;53.972;12.286;2023-02-15T08:41:18;84.03;;;25.45;;
64826;SDS011;51265;53.972;12.286;2023-02-15T08:43:47;102.22;;;25.88;;
64826;SDS011;51265;53.972;12.286;2023-02-15T08:46:15;79.75;;;27.15;;
64826;SDS011;51265;53.972;12.286;2023-02-15T08:48:42;106.20;;;27.27;;
64826;SDS011;51265;53.972;12.286;2023-02-15T08:51:10;154.40;;;29.30;;
64826;SDS011;51265;53.972;12.286;2023-02-15T08:53:39;225.18;;;30.85;;
64826;SDS011;51265;53.972;12.286;2023-02-15T08:56:06;114.28;;;26.33;;
64826;SDS011;51265;53.972;12.286;2023-02-15T08:58:34;167.63;;;29.13;;
64826;SDS011;51265;53.972;12.286;2023-02-15T09:01:00;106.45;;;26.33;;
64826;SDS011;51265;53.972;12.286;2023-02-15T09:03:28;66.22;;;24.00;;
64826;SDS011;51265;53.972;12.286;2023-02-15T09:06:01;161.55;;;28.65;;
64826;SDS011;51265;53.972;12.286;2023-02-15T09:08:27;86.97;;;23.83;;
64826;SDS011;51265;53.972;12.286;2023-02-15T09:10:54;61.75;;;25.00;;
64826;SDS011;51265;53.972;12.286;2023-02-15T09:13:29;175.40;;;30.90;;
64826;SDS011;51265;53.972;12.286;2023-02-15T09:15:59;107.00;;;28.45;;
64826;SDS011;51265;53.972;12.286;2023-02-15T09:18:26;132.80;;;28.52;;
64826;SDS011;51265;53.972;12.286;2023-02-15T09:20:52;137.40;;;28.15;;
64826;SDS011;51265;53.972;12.286;2023-02-15T09:23:18;115.30;;;27.70;;
64826;SDS011;51265;53.972;12.286;2023-02-15T09:25:44;114.05;;;27.77;;
64826;SDS011;51265;53.972;12.286;2023-02-15T09:28:11;129.70;;;30.90;;
64826;SDS011;51265;53.972;12.286;2023-02-15T09:30:37;112.28;;;26.27;;
64826;SDS011;51265;53.972;12.286;2023-02-15T09:33:12;90.25;;;26.80;;
64826;SDS011;51265;53.972;12.286;2023-02-15T09:35:38;75.32;;;27.15;;
64826;SDS011;51265;53.972;12.286;2023-02-15T09:38:04;80.03;;;28.05;;
64826;SDS011;51265;53.972;12.286;2023-02-15T09:40:31;81.78;;;28.67;;
64826;SDS011;51265;53.972;12.286;2023-02-15T09:46:10;94.80;;;26.98;;
64826;SDS011;51265;53.972;12.286;2023-02-15T09:48:48;73.90;;;26.95;;
64826;SDS011;51265;53.972;12.286;2023-02-15T09:54:37;134.85;;;31.73;;
64826;SDS011;51265;53.972;12.286;2023-02-15T09:57:08;81.35;;;28.20;;
64826;SDS011;51265;53.972;12.286;2023-02-15T09:59:58;71.55;;;26.83;;
64826;SDS011;51265;53.972;12.286;2023-02-15T10:02:50;107.85;;;29.33;;
64826;SDS011;51265;53.972;12.286;2023-02-15T10:05:36;83.55;;;28.35;;
64826;SDS011;51265;53.972;12.286;2023-02-15T10:10:41;91.93;;;28.42;;
64826;SDS011;51265;53.972;12.286;2023-02-15T10:14:02;89.03;;;28.40;;
64826;SDS011;51265;53.972;12.286;2023-02-15T10:19:35;84.93;;;26.85;;
64826;SDS011;51265;53.972;12.286;2023-02-15T10:24:52;74.88;;;27.67;;
64826;SDS011;51265;53.972;12.286;2023-02-15T10:27:52;77.22;;;30.13;;
64826;SDS011;51265;53.972;12.286;2023-02-15T10:30:31;85.72;;;30.50;;
64826;SDS011;51265;53.972;12.286;2023-02-15T10:33:24;80.88;;;28.17;;
64826;SDS011;51265;53.972;12.286;2023-02-15T10:36:07;74.45;;;28.92;;
64826;SDS011;51265;53.972;12.286;2023-02-15T10:38:52;73.15;;;28.63;;
64826;SDS011;51265;53.972;12.286;2023-02-15T10:47:08;68.10;;;28.27;;
64826;SDS011;51265;53.972;12.286;2023-02-15T10:58:31;75.90;;;30.33;;
64826;SDS011;51265;53.972;12.286;2023-02-15T11:06:57;67.78;;;29.63;;
64826;SDS011;51265;53.972;12.286;2023-02-15T11:09:47;73.68;;;28.60;;
64826;SDS011;51265;53.972;12.286;2023-02-15T11:12:18;69.05;;;29.60;;
64826;SDS011;51265;53.972;12.286;2023-02-15T11:14:51;70.57;;;29.02;;
64826;SDS011;51265;53.972;12.286;2023-02-15T11:17:38;66.93;;;28.17;;
64826;SDS011;51265;53.972;12.286;2023-02-15T11:23:08;67.63;;;28.90;;
64826;SDS011;51265;53.972;12.286;2023-02-15T11:25:41;69.38;;;29.27;;
64826;SDS011;51265;53.972;12.286;2023-02-15T11:28:15;72.30;;;30.02;;
64826;SDS011;51265;53.972;12.286;2023-02-15T11:30:47;77.57;;;30.30;;
64826;SDS011;51265;53.972;12.286;2023-02-15T11:33:19;68.15;;;28.17;;
64826;SDS011;51265;53.972;12.286;2023-02-15T11:35:51;68.88;;;27.80;;
64826;SDS011;51265;53.972;12.286;2023-02-15T11:38:39;69.93;;;28.88;;
64826;SDS011;51265;53.972;12.286;2023-02-15T11:41:10;64.35;;;28.92;;
64826;SDS011;51265;53.972;12.286;2023-02-15T11:46:24;62.53;;;28.00;;
64826;SDS011;51265;53.972;12.286;2023-02-15T11:48:50;63.63;;;27.35;;
64826;SDS011;51265;53.972;12.286;2023-02-15T11:51:20;68.88;;;29.42;;
64826;SDS011;51265;53.972;12.286;2023-02-15T11:53:48;65.45;;;29.83;;
64826;SDS011;51265;53.972;12.286;2023-02-15T11:56:17;65.22;;;27.85;;
64826;SDS011;51265;53.972;12.286;2023-02-15T11:58:55;58.72;;;28.00;;
64826;SDS011;51265;53.972;12.286;2023-02-15T12:01:33;63.83;;;27.77;;
64826;SDS011;51265;53.972;12.286;2023-02-15T12:04:08;57.25;;;26.42;;
64826;SDS011;51265;53.972;12.286;2023-02-15T12:09:50;63.97;;;28.25;;
64826;SDS011;51265;53.972;12.286;2023-02-15T12:12:37;61.00;;;27.90;;
64826;SDS011;51265;53.972;12.286;2023-02-15T12:15:05;63.58;;;29.40;;
64826;SDS011;51265;53.972;12.286;2023-02-15T12:17:34;65.13;;;30.55;;
64826;SDS011;51265;53.972;12.286;2023-02-15T12:22:45;66.90;;;30.60;;
64826;SDS011;51265;53.972;12.286;2023-02-15T12:25:22;72.80;;;31.42;;
64826;SDS011;51265;53.972;12.286;2023-02-15T12:27:54;68.97;;;30.75;;
64826;SDS011;51265;53.972;12.286;2023-02-15T12:30:22;67.03;;;29.75;;
64826;SDS011;51265;53.972;12.286;2023-02-15T12:33:02;69.18;;;31.15;;
64826;SDS011;51265;53.972;12.286;2023-02-15T12:41:33;74.13;;;31.30;;
64826;SDS011;51265;53.972;12.286;2023-02-15T12:44:04;76.22;;;32.85;;
64826;SDS011;51265;53.972;12.286;2023-02-15T12:46:30;75.65;;;32.10;;
64826;SDS011;51265;53.972;12.286;2023-02-15T12:49:07;71.65;;;31.15;;
64826;SDS011;51265;53.972;12.286;2023-02-15T12:51:43;71.87;;;30.87;;
64826;SDS011;51265;53.972;12.286;2023-02-15T12:54:17;72.88;;;31.27;;
64826;SDS011;51265;53.972;12.286;2023-02-15T12:56:43;70.10;;;30.70;;
64826;SDS011;51265;53.972;12.286;2023-02-15T12:59:12;76.13;;;33.13;;
64826;SDS011;51265;53.972;12.286;2023-02-15T13:01:41;76.50;;;33.45;;
64826;SDS011;51265;53.972;12.286;2023-02-15T13:06:49;75.68;;;32.33;;
64826;SDS011;51265;53.972;12.286;2023-02-15T13:09:19;79.82;;;33.55;;
64826;SDS011;51265;53.972;12.286;2023-02-15T13:11:50;65.22;;;30.15;;
64826;SDS011;51265;53.972;12.286;2023-02-15T13:14:32;70.57;;;30.88;;
64826;SDS011;51265;53.972;12.286;2023-02-15T13:17:00;63.05;;;28.88;;
64826;SDS011;51265;53.972;12.286;2023-02-15T13:21:59;69.78;;;30.33;;
64826;SDS011;51265;53.972;12.286;2023-02-15T13:24:36;64.95;;;29.38;;
64826;SDS011;51265;53.972;12.286;2023-02-15T13:27:11;58.72;;;26.92;;
64826;SDS011;51265;53.972;12.286;2023-02-15T13:29:43;67.72;;;30.52;;
64826;SDS011;51265;53.972;12.286;2023-02-15T13:32:44;64.68;;;28.60;;
64826;SDS011;51265;53.972;12.286;2023-02-15T13:35:10;72.28;;;30.65;;
64826;SDS011;51265;53.972;12.286;2023-02-15T13:40:30;68.47;;;31.02;;
64826;SDS011;51265;53.972;12.286;2023-02-15T13:43:05;64.10;;;28.80;;
64826;SDS011;51265;53.972;12.286;2023-02-15T13:51:16;73.03;;;31.55;;
64826;SDS011;51265;53.972;12.286;2023-02-15T13:53:48;68.03;;;30.98;;
64826;SDS011;51265;53.972;12.286;2023-02-15T13:56:28;67.80;;;31.15;;
64826;SDS011;51265;53.972;12.286;2023-02-15T14:01:47;53.95;;;24.27;;
64826;SDS011;51265;53.972;12.286;2023-02-15T14:04:25;57.28;;;25.05;;
64826;SDS011;51265;53.972;12.286;2023-02-15T14:07:25;59.72;;;26.42;;
64826;SDS011;51265;53.972;12.286;2023-02-15T14:13:12;54.45;;;25.25;;
64826;SDS011;51265;53.972;12.286;2023-02-15T14:18:35;49.55;;;22.95;;
64826;SDS011;51265;53.972;12.286;2023-02-15T14:21:31;52.42;;;23.95;;
64826;SDS011;51265;53.972;12.286;2023-02-15T14:26:53;57.28;;;25.00;;
64826;SDS011;51265;53.972;12.286;2023-02-15T14:32:18;58.08;;;24.70;;
64826;SDS011;51265;53.972;12.286;2023-02-15T14:35:13;61.67;;;26.17;;
64826;SDS011;51265;53.972;12.286;2023-02-15T14:40:42;60.95;;;24.23;;
64826;SDS011;51265;53.972;12.286;2023-02-15T14:43:46;54.90;;;23.70;;
64826;SDS011;51265;53.972;12.286;2023-02-15T14:46:36;59.13;;;24.13;;
64826;SDS011;51265;53.972;12.286;2023-02-15T14:49:12;60.00;;;25.52;;
64826;SDS011;51265;53.972;12.286;2023-02-15T15:04:38;61.53;;;25.85;;
64826;SDS011;51265;53.972;12.286;2023-02-15T15:07:19;54.72;;;23.08;;
64826;SDS011;51265;53.972;12.286;2023-02-15T15:09:48;55.38;;;25.00;;
64826;SDS011;51265;53.972;12.286;2023-02-15T15:14:53;55.35;;;24.02;;
64826;SDS011;51265;53.972;12.286;2023-02-15T15:22:31;57.58;;;23.52;;
64826;SDS011;51265;53.972;12.286;2023-02-15T15:28:02;57.88;;;25.30;;
64826;SDS011;51265;53.972;12.286;2023-02-15T15:38:24;62.65;;;24.13;;
64826;SDS011;51265;53.972;12.286;2023-02-15T15:41:10;54.17;;;24.77;;
64826;SDS011;51265;53.972;12.286;2023-02-15T15:43:54;54.17;;;24.57;;
64826;SDS011;51265;53.972;12.286;2023-02-15T15:49:12;67.20;;;26.70;;
64826;SDS011;51265;53.972;12.286;2023-02-15T15:51:42;59.60;;;25.48;;
64826;SDS011;51265;53.972;12.286;2023-02-15T15:54:14;55.42;;;24.25;;
64826;SDS011;51265;53.972;12.286;2023-02-15T15:56:43;61.58;;;26.55;;
64826;SDS011;51265;53.972;12.286;2023-02-15T15:59:14;53.95;;;24.13;;
64826;SDS011;51265;53.972;12.286;2023-02-15T16:01:45;58.30;;;24.63;;
64826;SDS011;51265;53.972;12.286;2023-02-15T16:04:12;62.00;;;25.85;;
64826;SDS011;51265;53.972;12.286;2023-02-15T16:06:47;57.58;;;24.25;;
64826;SDS011;51265;53.972;12.286;2023-02-15T16:09:17;62.97;;;26.02;;
64826;SDS011;51265;53.972;12.286;2023-02-15T16:11:56;61.97;;;24.80;;
64826;SDS011;51265;53.972;12.286;2023-02-15T16:14:35;66.65;;;25.58;;
64826;SDS011;51265;53.972;12.286;2023-02-15T16:17:04;57.25;;;24.67;;
64826;SDS011;51265;53.972;12.286;2023-02-15T16:19:33;56.63;;;24.25;;
64826;SDS011;51265;53.972;12.286;2023-02-15T16:22:03;60.85;;;25.77;;
64826;SDS011;51265;53.972;12.286;2023-02-15T16:27:29;64.00;;;25.67;;
64826;SDS011;51265;53.972;12.286;2023-02-15T16:33:09;59.10;;;23.83;;
64826;SDS011;51265;53.972;12.286;2023-02-15T16:35:38;58.45;;;24.83;;
64826;SDS011;51265;53.972;12.286;2023-02-15T16:38:09;59.97;;;24.88;;
64826;SDS011;51265;53.972;12.286;2023-02-15T16:40:55;64.22;;;23.95;;
64826;SDS011;51265;53.972;12.286;2023-02-15T16:43:24;71.20;;;26.05;;
64826;SDS011;51265;53.972;12.286;2023-02-15T16:45:58;63.70;;;25.13;;
64826;SDS011;51265;53.972;12.286;2023-02-15T16:48:30;59.53;;;24.98;;
64826;SDS011;51265;53.972;12.286;2023-02-15T16:50:58;60.67;;;25.60;;
64826;SDS011;51265;53.972;12.286;2023-02-15T16:53:25;63.55;;;25.70;;
64826;SDS011;51265;53.972;12.286;2023-02-15T16:55:54;63.92;;;25.83;;
64826;SDS011;51265;53.972;12.286;2023-02-15T16:58:27;67.75;;;26.38;;
64826;SDS011;51265;53.972;12.286;2023-02-15T17:00:57;62.40;;;25.17;;
64826;SDS011;51265;53.972;12.286;2023-02-15T17:03:25;60.67;;;25.40;;